sensor_id;sensor_type;location;lat;lon;timestamp;temperature;humidity
42885;DHT22;28534;48.100;11.584;2023-02-28T00:03:57;20.40;54.60
42885;DHT22;28534;48.100;11.584;2023-02-28T00:08:59;20.40;54.60
42885;DHT22;28534;48.100;11.584;2023-02-28T00:14:01;20.50;54.70
42885;DHT22;28534;48.100;11.584;2023-02-28T00:19:04;20.40;54.70
42885;DHT22;28534;48.100;11.584;2023-02-28T00:24:06;20.40;54.70
42885;DHT22;28534;48.100;11.584;2023-02-28T00:29:07;20.50;54.70
42885;DHT22;28534;48.100;11.584;2023-02-28T00:34:11;20.40;54.70
42885;DHT22;28534;48.100;11.584;2023-02-28T00:39:12;20.40;54.70
42885;DHT22;28534;48.100;11.584;2023-02-28T00:44:14;20.40;54.80
42885;DHT22;28534;48.100;11.584;2023-02-28T00:49:17;20.40;54.90
42885;DHT22;28534;48.100;11.584;2023-02-28T00:54:20;20.40;54.80
42885;DHT22;28534;48.100;11.584;2023-02-28T00:59:22;20.40;54.80
42885;DHT22;28534;48.100;11.584;2023-02-28T01:04:25;20.40;54.80
42885;DHT22;28534;48.100;11.584;2023-02-28T01:09:27;20.40;54.90
42885;DHT22;28534;48.100;11.584;2023-02-28T01:14:29;20.40;54.90
42885;DHT22;28534;48.100;11.584;2023-02-28T01:19:32;20.40;55.00
42885;DHT22;28534;48.100;11.584;2023-02-28T01:24:34;20.40;55.00
42885;DHT22;28534;48.100;11.584;2023-02-28T01:29:36;20.30;54.90
42885;DHT22;28534;48.100;11.584;2023-02-28T01:34:39;20.40;54.90
42885;DHT22;28534;48.100;11.584;2023-02-28T01:39:41;20.30;54.90
42885;DHT22;28534;48.100;11.584;2023-02-28T01:44:59;20.30;55.00
42885;DHT22;28534;48.100;11.584;2023-02-28T01:50:07;20.30;55.00
42885;DHT22;28534;48.100;11.584;2023-02-28T01:55:11;20.30;55.00
42885;DHT22;28534;48.100;11.584;2023-02-28T02:00:16;20.30;55.00
42885;DHT22;28534;48.100;11.584;2023-02-28T02:05:22;20.30;55.10
42885;DHT22;28534;48.100;11.584;2023-02-28T02:10:29;20.30;55.10
42885;DHT22;28534;48.100;11.584;2023-02-28T02:15:34;20.30;55.50
42885;DHT22;28534;48.100;11.584;2023-02-28T02:21:05;20.30;55.10
42885;DHT22;28534;48.100;11.584;2023-02-28T02:26:33;20.30;55.20
42885;DHT22;28534;48.100;11.584;2023-02-28T02:31:56;20.30;55.20
42885;DHT22;28534;48.100;11.584;2023-02-28T02:37:10;20.20;55.10
42885;DHT22;28534;48.100;11.584;2023-02-28T02:42:16;20.20;55.30
42885;DHT22;28534;48.100;11.584;2023-02-28T02:47:20;20.20;55.20
42885;DHT22;28534;48.100;11.584;2023-02-28T02:52:31;20.20;55.20
42885;DHT22;28534;48.100;11.584;2023-02-28T02:57:38;20.20;55.20
42885;DHT22;28534;48.100;11.584;2023-02-28T03:02:42;20.20;55.20
42885;DHT22;28534;48.100;11.584;2023-02-28T03:07:47;20.20;55.20
42885;DHT22;28534;48.100;11.584;2023-02-28T03:12:53;20.20;55.30
42885;DHT22;28534;48.100;11.584;2023-02-28T03:18:05;20.20;55.20
42885;DHT22;28534;48.100;11.584;2023-02-28T03:23:16;20.20;55.20
42885;DHT22;28534;48.100;11.584;2023-02-28T03:28:24;20.20;55.30
42885;DHT22;28534;48.100;11.584;2023-02-28T03:33:34;20.10;55.30
42885;DHT22;28534;48.100;11.584;2023-02-28T03:38:41;20.10;55.40
42885;DHT22;28534;48.100;11.584;2023-02-28T03:43:48;20.30;55.20
42885;DHT22;28534;48.100;11.584;2023-02-28T03:48:53;20.40;54.90
42885;DHT22;28534;48.100;11.584;2023-02-28T03:54:02;20.50;54.60
42885;DHT22;28534;48.100;11.584;2023-02-28T03:59:09;20.60;54.40
42885;DHT22;28534;48.100;11.584;2023-02-28T04:04:13;20.70;54.10
42885;DHT22;28534;48.100;11.584;2023-02-28T04:09:17;20.80;53.90
42885;DHT22;28534;48.100;11.584;2023-02-28T04:14:19;20.90;53.80
42885;DHT22;28534;48.100;11.584;2023-02-28T04:19:20;21.00;53.70
42885;DHT22;28534;48.100;11.584;2023-02-28T04:24:25;21.10;53.60
42885;DHT22;28534;48.100;11.584;2023-02-28T04:29:29;21.10;53.70
42885;DHT22;28534;48.100;11.584;2023-02-28T04:34:32;21.20;53.70
42885;DHT22;28534;48.100;11.584;2023-02-28T04:39:36;21.20;53.80
42885;DHT22;28534;48.100;11.584;2023-02-28T04:44:38;21.30;54.00
42885;DHT22;28534;48.100;11.584;2023-02-28T04:49:40;21.30;53.90
42885;DHT22;28534;48.100;11.584;2023-02-28T04:54:44;21.50;53.80
42885;DHT22;28534;48.100;11.584;2023-02-28T04:59:45;21.50;53.80
42885;DHT22;28534;48.100;11.584;2023-02-28T05:04:47;21.50;53.90
42885;DHT22;28534;48.100;11.584;2023-02-28T05:09:51;21.50;53.90
42885;DHT22;28534;48.100;11.584;2023-02-28T05:14:53;21.50;53.90
42885;DHT22;28534;48.100;11.584;2023-02-28T05:19:55;21.50;54.10
42885;DHT22;28534;48.100;11.584;2023-02-28T05:24:58;21.60;54.10
42885;DHT22;28534;48.100;11.584;2023-02-28T05:30:00;21.70;54.80
42885;DHT22;28534;48.100;11.584;2023-02-28T05:35:04;21.70;55.00
42885;DHT22;28534;48.100;11.584;2023-02-28T05:40:09;21.80;55.40
42885;DHT22;28534;48.100;11.584;2023-02-28T05:45:11;21.80;55.80
42885;DHT22;28534;48.100;11.584;2023-02-28T05:50:13;21.80;56.00
42885;DHT22;28534;48.100;11.584;2023-02-28T05:55:16;21.80;54.50
42885;DHT22;28534;48.100;11.584;2023-02-28T06:00:19;21.80;51.40
42885;DHT22;28534;48.100;11.584;2023-02-28T06:05:21;21.90;51.60
42885;DHT22;28534;48.100;11.584;2023-02-28T06:10:24;22.00;52.10
42885;DHT22;28534;48.100;11.584;2023-02-28T06:15:26;22.10;52.50
42885;DHT22;28534;48.100;11.584;2023-02-28T06:20:28;22.00;51.30
42885;DHT22;28534;48.100;11.584;2023-02-28T06:25:31;22.00;51.00
42885;DHT22;28534;48.100;11.584;2023-02-28T06:30:33;22.00;50.10
42885;DHT22;28534;48.100;11.584;2023-02-28T06:35:34;22.00;49.50
42885;DHT22;28534;48.100;11.584;2023-02-28T06:40:37;22.00;49.50
42885;DHT22;28534;48.100;11.584;2023-02-28T06:45:42;22.00;49.40
42885;DHT22;28534;48.100;11.584;2023-02-28T06:50:44;22.00;48.30
42885;DHT22;28534;48.100;11.584;2023-02-28T06:55:47;21.90;47.20
42885;DHT22;28534;48.100;11.584;2023-02-28T07:00:51;21.80;46.80
42885;DHT22;28534;48.100;11.584;2023-02-28T07:05:53;21.90;47.20
42885;DHT22;28534;48.100;11.584;2023-02-28T07:10:58;21.90;46.70
42885;DHT22;28534;48.100;11.584;2023-02-28T07:16:02;21.80;46.80
42885;DHT22;28534;48.100;11.584;2023-02-28T07:21:05;21.80;48.10
42885;DHT22;28534;48.100;11.584;2023-02-28T07:26:11;21.90;47.90
42885;DHT22;28534;48.100;11.584;2023-02-28T07:31:15;22.00;48.20
42885;DHT22;28534;48.100;11.584;2023-02-28T07:36:18;22.00;48.70
42885;DHT22;28534;48.100;11.584;2023-02-28T07:41:22;22.00;49.20
42885;DHT22;28534;48.100;11.584;2023-02-28T07:46:27;22.00;49.30
42885;DHT22;28534;48.100;11.584;2023-02-28T07:51:35;22.00;49.60
42885;DHT22;28534;48.100;11.584;2023-02-28T07:56:38;22.00;49.80
42885;DHT22;28534;48.100;11.584;2023-02-28T08:01:40;22.00;49.60
42885;DHT22;28534;48.100;11.584;2023-02-28T08:06:42;22.00;49.30
42885;DHT22;28534;48.100;11.584;2023-02-28T08:11:45;22.00;49.50
42885;DHT22;28534;48.100;11.584;2023-02-28T08:16:47;21.90;49.60
42885;DHT22;28534;48.100;11.584;2023-02-28T08:21:48;22.00;49.60
42885;DHT22;28534;48.100;11.584;2023-02-28T08:26:51;21.90;49.30
42885;DHT22;28534;48.100;11.584;2023-02-28T08:31:53;21.90;49.40
42885;DHT22;28534;48.100;11.584;2023-02-28T08:36:55;21.90;49.70
42885;DHT22;28534;48.100;11.584;2023-02-28T08:41:58;22.00;49.80
42885;DHT22;28534;48.100;11.584;2023-02-28T08:47:00;22.00;49.80
42885;DHT22;28534;48.100;11.584;2023-02-28T08:52:02;22.00;49.70
42885;DHT22;28534;48.100;11.584;2023-02-28T08:57:05;22.00;49.80
42885;DHT22;28534;48.100;11.584;2023-02-28T09:02:08;22.10;49.90
42885;DHT22;28534;48.100;11.584;2023-02-28T09:07:10;22.00;50.40
42885;DHT22;28534;48.100;11.584;2023-02-28T09:12:13;22.00;50.30
42885;DHT22;28534;48.100;11.584;2023-02-28T09:17:15;22.00;50.10
42885;DHT22;28534;48.100;11.584;2023-02-28T09:22:17;22.00;49.80
42885;DHT22;28534;48.100;11.584;2023-02-28T09:27:20;22.00;49.90
42885;DHT22;28534;48.100;11.584;2023-02-28T09:32:22;22.10;50.30
42885;DHT22;28534;48.100;11.584;2023-02-28T09:37:24;22.10;50.70
42885;DHT22;28534;48.100;11.584;2023-02-28T09:42:34;22.10;51.30
42885;DHT22;28534;48.100;11.584;2023-02-28T09:47:40;22.10;51.00
42885;DHT22;28534;48.100;11.584;2023-02-28T09:52:45;22.00;48.80
42885;DHT22;28534;48.100;11.584;2023-02-28T09:57:51;21.90;49.00
42885;DHT22;28534;48.100;11.584;2023-02-28T10:03:24;21.90;49.80
42885;DHT22;28534;48.100;11.584;2023-02-28T10:08:30;21.90;50.40
42885;DHT22;28534;48.100;11.584;2023-02-28T10:13:36;22.00;50.70
42885;DHT22;28534;48.100;11.584;2023-02-28T10:18:45;21.90;50.90
42885;DHT22;28534;48.100;11.584;2023-02-28T10:23:48;22.00;51.10
42885;DHT22;28534;48.100;11.584;2023-02-28T10:28:53;22.10;50.70
42885;DHT22;28534;48.100;11.584;2023-02-28T10:33:55;22.20;50.60
42885;DHT22;28534;48.100;11.584;2023-02-28T10:38:56;22.20;50.60
42885;DHT22;28534;48.100;11.584;2023-02-28T10:44:17;22.30;50.60
42885;DHT22;28534;48.100;11.584;2023-02-28T10:49:22;22.30;50.60
42885;DHT22;28534;48.100;11.584;2023-02-28T10:54:28;22.40;50.40
42885;DHT22;28534;48.100;11.584;2023-02-28T10:59:32;22.40;50.40
42885;DHT22;28534;48.100;11.584;2023-02-28T11:04:36;22.50;50.30
42885;DHT22;28534;48.100;11.584;2023-02-28T11:09:40;22.40;50.40
42885;DHT22;28534;48.100;11.584;2023-02-28T11:14:50;22.50;50.60
42885;DHT22;28534;48.100;11.584;2023-02-28T11:19:55;22.40;50.70
42885;DHT22;28534;48.100;11.584;2023-02-28T11:25:00;22.40;50.80
42885;DHT22;28534;48.100;11.584;2023-02-28T11:30:27;22.40;50.90
42885;DHT22;28534;48.100;11.584;2023-02-28T11:35:33;22.40;50.90
42885;DHT22;28534;48.100;11.584;2023-02-28T11:40:42;22.40;51.00
42885;DHT22;28534;48.100;11.584;2023-02-28T11:45:59;22.40;51.20
42885;DHT22;28534;48.100;11.584;2023-02-28T11:51:14;22.40;51.20
42885;DHT22;28534;48.100;11.584;2023-02-28T11:56:22;22.30;51.30
42885;DHT22;28534;48.100;11.584;2023-02-28T12:01:36;22.30;51.50
42885;DHT22;28534;48.100;11.584;2023-02-28T12:06:45;22.30;51.50
42885;DHT22;28534;48.100;11.584;2023-02-28T12:11:54;22.30;51.50
42885;DHT22;28534;48.100;11.584;2023-02-28T12:17:06;22.30;51.90
42885;DHT22;28534;48.100;11.584;2023-02-28T12:22:22;22.40;51.80
42885;DHT22;28534;48.100;11.584;2023-02-28T12:27:31;22.40;51.60
42885;DHT22;28534;48.100;11.584;2023-02-28T12:32:36;20.20;36.80
42885;DHT22;28534;48.100;11.584;2023-02-28T12:37:44;17.40;35.60
42885;DHT22;28534;48.100;11.584;2023-02-28T12:42:50;18.50;37.30
42885;DHT22;28534;48.100;11.584;2023-02-28T12:47:59;20.40;35.80
42885;DHT22;28534;48.100;11.584;2023-02-28T12:53:04;21.00;36.40
42885;DHT22;28534;48.100;11.584;2023-02-28T12:58:12;21.30;37.50
42885;DHT22;28534;48.100;11.584;2023-02-28T13:03:38;21.50;38.80
42885;DHT22;28534;48.100;11.584;2023-02-28T13:09:13;21.80;39.70
42885;DHT22;28534;48.100;11.584;2023-02-28T13:14:22;21.90;40.40
42885;DHT22;28534;48.100;11.584;2023-02-28T13:19:27;21.90;41.00
42885;DHT22;28534;48.100;11.584;2023-02-28T13:24:42;22.00;41.70
42885;DHT22;28534;48.100;11.584;2023-02-28T13:29:44;22.10;42.10
42885;DHT22;28534;48.100;11.584;2023-02-28T13:40:32;22.20;42.90
42885;DHT22;28534;48.100;11.584;2023-02-28T13:45:37;22.20;43.30
42885;DHT22;28534;48.100;11.584;2023-02-28T13:50:42;22.20;43.70
42885;DHT22;28534;48.100;11.584;2023-02-28T13:55:46;22.10;44.10
42885;DHT22;28534;48.100;11.584;2023-02-28T14:01:05;22.20;44.50
42885;DHT22;28534;48.100;11.584;2023-02-28T14:06:21;22.20;44.70
42885;DHT22;28534;48.100;11.584;2023-02-28T14:11:28;22.30;45.50
42885;DHT22;28534;48.100;11.584;2023-02-28T14:16:38;22.20;45.10
42885;DHT22;28534;48.100;11.584;2023-02-28T14:21:53;22.20;45.50
42885;DHT22;28534;48.100;11.584;2023-02-28T14:27:21;22.20;45.80
42885;DHT22;28534;48.100;11.584;2023-02-28T14:32:28;22.10;46.00
42885;DHT22;28534;48.100;11.584;2023-02-28T14:37:37;22.10;46.10
42885;DHT22;28534;48.100;11.584;2023-02-28T14:42:47;22.10;46.60
42885;DHT22;28534;48.100;11.584;2023-02-28T14:47:50;22.20;46.80
42885;DHT22;28534;48.100;11.584;2023-02-28T14:52:54;22.30;47.10
42885;DHT22;28534;48.100;11.584;2023-02-28T14:57:57;22.20;47.10
42885;DHT22;28534;48.100;11.584;2023-02-28T15:03:11;22.20;47.50
42885;DHT22;28534;48.100;11.584;2023-02-28T15:08:19;22.10;48.00
42885;DHT22;28534;48.100;11.584;2023-02-28T15:13:21;22.00;47.90
42885;DHT22;28534;48.100;11.584;2023-02-28T15:18:30;22.00;48.00
42885;DHT22;28534;48.100;11.584;2023-02-28T15:23:35;22.00;48.10
42885;DHT22;28534;48.100;11.584;2023-02-28T15:28:38;22.00;48.10
42885;DHT22;28534;48.100;11.584;2023-02-28T15:33:52;22.10;48.10
42885;DHT22;28534;48.100;11.584;2023-02-28T15:38:55;22.10;48.30
42885;DHT22;28534;48.100;11.584;2023-02-28T15:44:17;22.10;48.40
42885;DHT22;28534;48.100;11.584;2023-02-28T15:49:28;22.00;48.50
42885;DHT22;28534;48.100;11.584;2023-02-28T15:54:33;22.00;48.60
42885;DHT22;28534;48.100;11.584;2023-02-28T15:59:36;21.90;48.70
42885;DHT22;28534;48.100;11.584;2023-02-28T16:04:54;21.90;48.80
42885;DHT22;28534;48.100;11.584;2023-02-28T16:09:57;21.90;48.90
42885;DHT22;28534;48.100;11.584;2023-02-28T16:15:01;22.00;48.90
42885;DHT22;28534;48.100;11.584;2023-02-28T16:20:12;22.00;49.00
42885;DHT22;28534;48.100;11.584;2023-02-28T16:25:17;22.00;49.20
42885;DHT22;28534;48.100;11.584;2023-02-28T16:30:22;22.00;49.30
42885;DHT22;28534;48.100;11.584;2023-02-28T16:35:24;22.00;49.40
42885;DHT22;28534;48.100;11.584;2023-02-28T16:40:28;22.00;49.30
42885;DHT22;28534;48.100;11.584;2023-02-28T16:45:34;22.10;49.40
42885;DHT22;28534;48.100;11.584;2023-02-28T16:50:36;22.10;49.20
42885;DHT22;28534;48.100;11.584;2023-02-28T16:55:39;22.30;49.40
42885;DHT22;28534;48.100;11.584;2023-02-28T17:00:41;22.30;49.60
42885;DHT22;28534;48.100;11.584;2023-02-28T17:05:43;22.30;50.00
42885;DHT22;28534;48.100;11.584;2023-02-28T17:10:47;22.20;50.60
42885;DHT22;28534;48.100;11.584;2023-02-28T17:15:49;22.10;51.20
42885;DHT22;28534;48.100;11.584;2023-02-28T17:20:51;22.00;51.00
42885;DHT22;28534;48.100;11.584;2023-02-28T17:25:54;22.00;51.20
42885;DHT22;28534;48.100;11.584;2023-02-28T17:30:56;22.00;51.30
42885;DHT22;28534;48.100;11.584;2023-02-28T17:35:57;22.10;50.70
42885;DHT22;28534;48.100;11.584;2023-02-28T17:41:00;21.20;37.30
42885;DHT22;28534;48.100;11.584;2023-02-28T17:46:02;21.10;40.80
42885;DHT22;28534;48.100;11.584;2023-02-28T17:51:05;21.30;41.80
42885;DHT22;28534;48.100;11.584;2023-02-28T17:56:11;21.40;41.60
42885;DHT22;28534;48.100;11.584;2023-02-28T18:01:14;21.30;42.60
42885;DHT22;28534;48.100;11.584;2023-02-28T18:06:19;21.30;43.10
42885;DHT22;28534;48.100;11.584;2023-02-28T18:11:23;21.30;44.20
42885;DHT22;28534;48.100;11.584;2023-02-28T18:16:26;21.20;45.40
42885;DHT22;28534;48.100;11.584;2023-02-28T18:21:28;21.20;46.30
42885;DHT22;28534;48.100;11.584;2023-02-28T18:26:31;21.10;47.10
42885;DHT22;28534;48.100;11.584;2023-02-28T18:31:33;21.10;47.30
42885;DHT22;28534;48.100;11.584;2023-02-28T18:36:35;21.10;47.60
42885;DHT22;28534;48.100;11.584;2023-02-28T18:41:47;21.10;48.00
42885;DHT22;28534;48.100;11.584;2023-02-28T18:46:49;21.00;48.60
42885;DHT22;28534;48.100;11.584;2023-02-28T18:51:51;21.00;48.90
42885;DHT22;28534;48.100;11.584;2023-02-28T18:56:54;21.00;49.20
42885;DHT22;28534;48.100;11.584;2023-02-28T19:01:56;21.00;49.50
42885;DHT22;28534;48.100;11.584;2023-02-28T19:06:58;21.00;49.70
42885;DHT22;28534;48.100;11.584;2023-02-28T19:12:01;21.00;50.00
42885;DHT22;28534;48.100;11.584;2023-02-28T19:17:03;21.00;50.10
42885;DHT22;28534;48.100;11.584;2023-02-28T19:22:05;21.00;50.40
42885;DHT22;28534;48.100;11.584;2023-02-28T19:27:08;21.00;50.40
42885;DHT22;28534;48.100;11.584;2023-02-28T19:32:10;21.00;50.60
42885;DHT22;28534;48.100;11.584;2023-02-28T19:37:13;20.90;50.80
42885;DHT22;28534;48.100;11.584;2023-02-28T19:42:17;20.90;51.00
42885;DHT22;28534;48.100;11.584;2023-02-28T19:47:19;20.90;51.20
42885;DHT22;28534;48.100;11.584;2023-02-28T19:52:21;20.90;51.30
42885;DHT22;28534;48.100;11.584;2023-02-28T19:57:25;20.90;51.40
42885;DHT22;28534;48.100;11.584;2023-02-28T20:02:26;20.90;51.60
42885;DHT22;28534;48.100;11.584;2023-02-28T20:07:29;20.80;51.70
42885;DHT22;28534;48.100;11.584;2023-02-28T20:12:33;20.90;51.80
42885;DHT22;28534;48.100;11.584;2023-02-28T20:17:35;20.80;51.90
42885;DHT22;28534;48.100;11.584;2023-02-28T20:22:36;20.80;52.10
42885;DHT22;28534;48.100;11.584;2023-02-28T20:27:40;20.80;52.40
42885;DHT22;28534;48.100;11.584;2023-02-28T20:32:41;20.80;52.60
42885;DHT22;28534;48.100;11.584;2023-02-28T20:37:43;20.80;52.70
42885;DHT22;28534;48.100;11.584;2023-02-28T20:42:46;20.80;52.70
42885;DHT22;28534;48.100;11.584;2023-02-28T20:47:49;20.80;52.80
42885;DHT22;28534;48.100;11.584;2023-02-28T20:52:51;20.80;52.90
42885;DHT22;28534;48.100;11.584;2023-02-28T20:57:54;20.70;53.00
42885;DHT22;28534;48.100;11.584;2023-02-28T21:02:56;20.70;53.00
42885;DHT22;28534;48.100;11.584;2023-02-28T21:07:58;20.70;53.00
42885;DHT22;28534;48.100;11.584;2023-02-28T21:13:01;20.60;53.00
42885;DHT22;28534;48.100;11.584;2023-02-28T21:18:03;20.60;53.00
42885;DHT22;28534;48.100;11.584;2023-02-28T21:23:04;20.60;53.00
42885;DHT22;28534;48.100;11.584;2023-02-28T21:28:07;20.60;53.00
42885;DHT22;28534;48.100;11.584;2023-02-28T21:33:09;20.60;53.10
42885;DHT22;28534;48.100;11.584;2023-02-28T21:38:11;20.60;53.10
42885;DHT22;28534;48.100;11.584;2023-02-28T21:43:14;20.60;53.10
42885;DHT22;28534;48.100;11.584;2023-02-28T21:48:16;20.60;53.10
42885;DHT22;28534;48.100;11.584;2023-02-28T21:53:18;20.60;53.10
42885;DHT22;28534;48.100;11.584;2023-02-28T21:58:21;20.60;53.10
42885;DHT22;28534;48.100;11.584;2023-02-28T22:03:23;20.60;53.10
42885;DHT22;28534;48.100;11.584;2023-02-28T22:08:24;20.60;53.20
42885;DHT22;28534;48.100;11.584;2023-02-28T22:13:27;20.60;53.20
42885;DHT22;28534;48.100;11.584;2023-02-28T22:18:29;20.50;53.20
42885;DHT22;28534;48.100;11.584;2023-02-28T22:23:31;20.50;53.20
42885;DHT22;28534;48.100;11.584;2023-02-28T22:28:35;20.50;53.20
42885;DHT22;28534;48.100;11.584;2023-02-28T22:33:37;20.50;53.20
42885;DHT22;28534;48.100;11.584;2023-02-28T22:38:39;20.50;53.30
42885;DHT22;28534;48.100;11.584;2023-02-28T22:43:43;20.50;53.30
42885;DHT22;28534;48.100;11.584;2023-02-28T22:48:45;20.50;53.30
42885;DHT22;28534;48.100;11.584;2023-02-28T22:53:48;20.50;53.40
42885;DHT22;28534;48.100;11.584;2023-02-28T22:58:53;20.40;53.40
42885;DHT22;28534;48.100;11.584;2023-02-28T23:03:55;20.50;53.40
42885;DHT22;28534;48.100;11.584;2023-02-28T23:08:59;20.50;53.40
42885;DHT22;28534;48.100;11.584;2023-02-28T23:14:02;20.40;53.40
42885;DHT22;28534;48.100;11.584;2023-02-28T23:19:06;20.40;53.50
42885;DHT22;28534;48.100;11.584;2023-02-28T23:24:10;20.40;53.50
42885;DHT22;28534;48.100;11.584;2023-02-28T23:29:14;20.40;53.50
42885;DHT22;28534;48.100;11.584;2023-02-28T23:34:17;20.40;53.50
42885;DHT22;28534;48.100;11.584;2023-02-28T23:39:27;20.40;53.60
42885;DHT22;28534;48.100;11.584;2023-02-28T23:44:30;20.40;53.60
42885;DHT22;28534;48.100;11.584;2023-02-28T23:49:32;20.40;53.70
42885;DHT22;28534;48.100;11.584;2023-02-28T23:54:34;20.30;53.70
42885;DHT22;28534;48.100;11.584;2023-02-28T23:59:37;20.30;53.60
